Woodward, OK

3:23 PM CDT on May 22, 2017 (GMT -0500)
West Woodward

Weather History for KWWR - May, 2014

Change the Weather History Date:

Saturday, May 3, 2014

  Actual Average (KGAG) Record (KGAG)
Temperature  
Mean Temperature 74 °F -  
Max Temperature 93 °F 71 °F 98 °F (1950)
Min Temperature 55 °F 45 °F 28 °F (2013)
Cooling Degree Days 9    
Growing Degree Days 24 (Base 50)    
Moisture  
Dew Point 22 °F    
Average Humidity 15    
Maximum Humidity 26    
Minimum Humidity 8    
Precipitation  
Precipitation 0.00 in - - ()
Sea Level Pressure  
Sea Level Pressure 29.93 in    
Wind  
Wind Speed 14 mph (SSW)    
Max Wind Speed 24 mph    
Max Gust Speed 31 mph    
Visibility 10 miles    
Events      
Averages and records for this station are not official NWS values.
T = Trace of Precipitation, MM = Missing Value Source: NWS Daily Summary

Daily Weather History Graph

Daily Weather History Graph

Search for Another Location

Airport or City:

Trip Planner

Search our weather history database for the weather conditions in past years. The results will help you decide how hot, cold, wet, or windy it might be!

Date:

Astronomy

May. 03, 2014 Rise Set
Actual Time 6:42 AM CDT 8:27 PM CDT
Civil Twilight 6:14 AM CDT 8:55 PM CDT
Nautical Twilight 5:41 AM CDT 9:29 PM CDT
Astronomical Twilight 5:05 AM CDT 10:05 PM CDT
Moon 10:15 AM CDT (5/3) No Moon Set
Length of Visible Light 14h 40m
Length of Day
13h 45m
Waxing Crescent, 20% of the Moon is Illuminated
May 3
Waxing Crescent
May 6
First Quarter
May 14
Full
May 21
Last Quarter
May 28
New

Hourly Weather History & Observations

Time (CDT) Temp. Dew Point Humidity Pressure Visibility Wind Dir Wind Speed Gust Speed Precip Events Conditions
12:15 AM 60.8 °F 21.2 °F 22% 29.95 in 10.0 mi South 13.8 mph - N/A   Clear
12:35 AM 62.6 °F 19.4 °F 19% 29.95 in 10.0 mi South 13.8 mph - N/A   Clear
12:55 AM 60.8 °F 21.2 °F 22% 29.95 in 10.0 mi SW 8.1 mph - N/A   Clear
1:15 AM 59.0 °F 21.2 °F 23% 29.95 in 10.0 mi SSW 11.5 mph - N/A   Clear
1:35 AM 59.0 °F 21.2 °F 23% 29.95 in 10.0 mi SSW 12.7 mph - N/A   Clear
1:55 AM 59.0 °F 21.2 °F 23% 29.95 in 10.0 mi SSW 13.8 mph - N/A   Clear
2:15 AM 59.0 °F 21.2 °F 23% 29.95 in 10.0 mi SW 12.7 mph - N/A   Clear
2:35 AM 57.2 °F 21.2 °F 25% 29.95 in 10.0 mi SW 11.5 mph - N/A   Clear
2:55 AM 57.2 °F 21.2 °F 25% 29.95 in 10.0 mi SSW 10.4 mph - N/A   Clear
3:15 AM 57.2 °F 21.2 °F 25% 29.95 in 10.0 mi SSW 11.5 mph - N/A   Clear
3:35 AM 59.0 °F 19.4 °F 22% 29.95 in 10.0 mi SSW 13.8 mph - N/A   Clear
3:55 AM 59.0 °F 19.4 °F 22% 29.95 in 10.0 mi SW 12.7 mph - N/A   Clear
4:15 AM 55.4 °F 21.2 °F 26% 29.95 in 10.0 mi SW 11.5 mph - N/A   Clear
4:35 AM 55.4 °F 21.2 °F 26% 29.95 in 10.0 mi SSW 11.5 mph - N/A   Clear
4:55 AM 55.4 °F 19.4 °F 25% 29.95 in 10.0 mi SW 11.5 mph - N/A   Clear
5:15 AM 57.2 °F 19.4 °F 23% 29.95 in 10.0 mi SW 12.7 mph - N/A   Clear
5:35 AM 55.4 °F 19.4 °F 25% 29.96 in 10.0 mi SW 11.5 mph - N/A   Clear
5:55 AM 55.4 °F 21.2 °F 26% 29.96 in 10.0 mi SW 11.5 mph - N/A   Clear
6:15 AM 55.4 °F 19.4 °F 25% 29.96 in 10.0 mi SW 11.5 mph - N/A   Clear
6:35 AM 55.4 °F 19.4 °F 25% 29.96 in 10.0 mi SW 11.5 mph - N/A   Clear
6:55 AM 55.4 °F 19.4 °F 25% 29.96 in 10.0 mi SW 11.5 mph - N/A   Clear
7:15 AM 57.2 °F 19.4 °F 23% 29.97 in 10.0 mi SW 12.7 mph - N/A   Clear
7:35 AM 59.0 °F 19.4 °F 22% 29.97 in 10.0 mi SW 12.7 mph - N/A   Clear
7:55 AM 60.8 °F 19.4 °F 20% 29.97 in 10.0 mi SSW 12.7 mph - N/A   Clear
8:15 AM 62.6 °F 19.4 °F 19% 29.98 in 10.0 mi SW 13.8 mph - N/A   Clear
8:35 AM 64.4 °F 19.4 °F 18% 29.98 in 10.0 mi SW 13.8 mph - N/A   Clear
8:55 AM 68.0 °F 19.4 °F 16% 29.98 in 10.0 mi SSW 16.1 mph - N/A   Clear
9:15 AM 69.8 °F 19.4 °F 15% 29.98 in 10.0 mi SW 13.8 mph 18.4 mph N/A   Clear
9:35 AM 71.6 °F 21.2 °F 15% 29.98 in 10.0 mi SW 15.0 mph 21.9 mph N/A   Clear
9:55 AM 75.2 °F 21.2 °F 13% 29.97 in 10.0 mi SSW 15.0 mph - N/A   Clear
10:15 AM 77.0 °F 21.2 °F 12% 29.97 in 10.0 mi SW 15.0 mph - N/A   Clear
10:35 AM 78.8 °F 23.0 °F 13% 29.97 in 10.0 mi SW 11.5 mph - N/A   Clear
10:55 AM 80.6 °F 23.0 °F 12% 29.97 in 10.0 mi SW 12.7 mph - N/A   Clear
11:15 AM 82.4 °F 23.0 °F 11% 29.97 in 10.0 mi SSW 11.5 mph - N/A   Clear
11:35 AM 84.2 °F 23.0 °F 11% 29.98 in 10.0 mi SW 13.8 mph 18.4 mph N/A   Clear
11:55 AM 86.0 °F 23.0 °F 10% 29.98 in 10.0 mi SW 11.5 mph - N/A   Clear
12:15 PM 86.0 °F 23.0 °F 10% 29.98 in 10.0 mi SSW 12.7 mph 16.1 mph N/A   Clear
12:35 PM 87.8 °F 23.0 °F 9% 29.97 in 10.0 mi SSW 13.8 mph 21.9 mph N/A   Clear
12:55 PM 89.6 °F 23.0 °F 9% 29.96 in 10.0 mi South 12.7 mph 19.6 mph N/A   Clear
1:15 PM 89.6 °F 23.0 °F 9% 29.96 in 10.0 mi SSW 19.6 mph 23.0 mph N/A   Clear
1:35 PM 89.6 °F 21.2 °F 8% 29.95 in 10.0 mi South 16.1 mph 20.7 mph N/A   Clear
1:55 PM 89.6 °F 23.0 °F 9% 29.94 in 10.0 mi South 17.3 mph 21.9 mph N/A   Clear
2:15 PM 91.4 °F 23.0 °F 8% 29.93 in 10.0 mi SSW 16.1 mph 20.7 mph N/A   Clear
2:35 PM 91.4 °F 23.0 °F 8% 29.93 in 10.0 mi South 18.4 mph 25.3 mph N/A   Clear
2:55 PM 91.4 °F 23.0 °F 8% 29.93 in 10.0 mi SSW 15.0 mph 31.1 mph N/A   Clear
3:15 PM 91.4 °F 23.0 °F 8% 29.91 in 10.0 mi South 17.3 mph 26.5 mph N/A   Clear
3:35 PM 91.4 °F 23.0 °F 8% 29.91 in 10.0 mi SSW 17.3 mph 26.5 mph N/A   Clear
3:55 PM 91.4 °F 23.0 °F 8% 29.90 in 10.0 mi South 19.6 mph 25.3 mph N/A   Clear
4:15 PM 91.4 °F 23.0 °F 8% 29.90 in 10.0 mi SSW 16.1 mph 25.3 mph N/A   Clear
4:35 PM 91.4 °F 21.2 °F 8% 29.89 in 10.0 mi South 15.0 mph 23.0 mph N/A   Clear
4:55 PM 91.4 °F 21.2 °F 8% 29.89 in 10.0 mi SSW 16.1 mph 23.0 mph N/A   Clear
5:15 PM 93.2 °F 23.0 °F 8% 29.88 in 10.0 mi SSW 12.7 mph 18.4 mph N/A   Clear
5:35 PM 91.4 °F 23.0 °F 8% 29.87 in 10.0 mi South 18.4 mph 27.6 mph N/A   Clear
5:55 PM 91.4 °F 23.0 °F 8% 29.87 in 10.0 mi South 20.7 mph 26.5 mph N/A   Clear
6:15 PM 91.4 °F 23.0 °F 8% 29.87 in 10.0 mi South 17.3 mph 26.5 mph N/A   Clear
6:35 PM 89.6 °F 23.0 °F 9% 29.86 in 10.0 mi SSE 18.4 mph 25.3 mph N/A   Clear
6:55 PM 89.6 °F 23.0 °F 9% 29.86 in 10.0 mi SSE 20.7 mph 27.6 mph N/A   Clear
7:15 PM 87.8 °F 23.0 °F 9% 29.86 in 10.0 mi SSE 18.4 mph 24.2 mph N/A   Clear
7:35 PM 87.8 °F 23.0 °F 9% 29.86 in 10.0 mi SSE 17.3 mph 24.2 mph N/A   Clear
7:55 PM 86.0 °F 23.0 °F 10% 29.86 in 10.0 mi SSE 12.7 mph - N/A   Clear
8:15 PM 82.4 °F 23.0 °F 11% 29.87 in 10.0 mi SSE 12.7 mph - N/A   Clear
8:35 PM 80.6 °F 23.0 °F 12% 29.87 in 10.0 mi SSE 12.7 mph - N/A   Clear
8:55 PM 80.6 °F 23.0 °F 12% 29.87 in 10.0 mi SSE 16.1 mph - N/A   Clear
9:15 PM 80.6 °F 23.0 °F 12% 29.87 in 10.0 mi SSE 17.3 mph 23.0 mph N/A   Clear
9:35 PM 80.6 °F 23.0 °F 12% 29.87 in 10.0 mi SSE 19.6 mph 25.3 mph N/A   Clear
9:55 PM 78.8 °F 23.0 °F 13% 29.87 in 10.0 mi SSE 21.9 mph 28.8 mph N/A   Clear
10:15 PM 78.8 °F 21.2 °F 12% 29.88 in 10.0 mi SSE 20.7 mph 28.8 mph N/A   Clear
10:35 PM 78.8 °F 21.2 °F 12% 29.88 in 10.0 mi SSE 20.7 mph 28.8 mph N/A   Clear
10:55 PM 78.8 °F 21.2 °F 12% 29.88 in 10.0 mi SSE 21.9 mph 29.9 mph N/A   Clear
11:15 PM 77.0 °F 21.2 °F 12% 29.88 in 10.0 mi SSE 20.7 mph 26.5 mph N/A   Clear
11:35 PM 77.0 °F 21.2 °F 12% 29.88 in 10.0 mi SSE 24.2 mph 29.9 mph N/A   Clear
11:55 PM 77.0 °F 21.2 °F 12% 29.88 in 10.0 mi South 24.2 mph 29.9 mph N/A   Clear